sensor_id;sensor_type;location;lat;lon;timestamp;pressure;altitude;pressure_sealevel;temperature;humidity
79463;BME280;68931;47.286;18.756;2023-08-06T00:00:13;99279.38;;;18.53;98.06
79463;BME280;68931;47.286;18.756;2023-08-06T00:00:45;99281.88;;;18.54;98.17
79463;BME280;68931;47.286;18.756;2023-08-06T00:01:17;99271.28;;;18.46;98.33
79463;BME280;68931;47.286;18.756;2023-08-06T00:01:51;99275.75;;;18.54;98.25
79463;BME280;68931;47.286;18.756;2023-08-06T00:02:23;99284.38;;;18.64;98.47
79463;BME280;68931;47.286;18.756;2023-08-06T00:02:55;99278.75;;;18.59;98.48
79463;BME280;68931;47.286;18.756;2023-08-06T00:03:27;99287.69;;;18.66;98.05
79463;BME280;68931;47.286;18.756;2023-08-06T00:03:59;99265.59;;;18.49;97.68
79463;BME280;68931;47.286;18.756;2023-08-06T00:04:32;99262.78;;;18.51;98.26
79463;BME280;68931;47.286;18.756;2023-08-06T00:05:57;99291.16;;;18.66;98.37
79463;BME280;68931;47.286;18.756;2023-08-06T00:06:29;99275.41;;;18.57;98.73
79463;BME280;68931;47.286;18.756;2023-08-06T00:07:01;99266.94;;;18.53;98.03
79463;BME280;68931;47.286;18.756;2023-08-06T00:07:33;99295.19;;;18.62;98.08
79463;BME280;68931;47.286;18.756;2023-08-06T00:08:05;99263.47;;;18.45;98.34
79463;BME280;68931;47.286;18.756;2023-08-06T00:08:37;99286.88;;;18.57;98.09
79463;BME280;68931;47.286;18.756;2023-08-06T00:09:09;99303.31;;;18.61;97.66
79463;BME280;68931;47.286;18.756;2023-08-06T00:09:42;99299.66;;;18.62;97.80
79463;BME280;68931;47.286;18.756;2023-08-06T00:10:14;99302.31;;;18.62;98.10
79463;BME280;68931;47.286;18.756;2023-08-06T00:10:47;99298.66;;;18.55;98.14
79463;BME280;68931;47.286;18.756;2023-08-06T00:11:20;99300.31;;;18.56;97.48
79463;BME280;68931;47.286;18.756;2023-08-06T00:11:52;99291.34;;;18.49;97.63
79463;BME280;68931;47.286;18.756;2023-08-06T00:12:24;99283.53;;;18.47;97.35
79463;BME280;68931;47.286;18.756;2023-08-06T00:12:56;99294.66;;;18.51;97.87
79463;BME280;68931;47.286;18.756;2023-08-06T00:13:28;99292.84;;;18.51;97.83
79463;BME280;68931;47.286;18.756;2023-08-06T00:14:00;99297.50;;;18.57;98.33
79463;BME280;68931;47.286;18.756;2023-08-06T00:14:32;99303.31;;;18.61;97.96
79463;BME280;68931;47.286;18.756;2023-08-06T00:15:04;99298.84;;;18.61;98.40
79463;BME280;68931;47.286;18.756;2023-08-06T00:15:36;99305.97;;;18.61;98.18
79463;BME280;68931;47.286;18.756;2023-08-06T00:16:10;99301.66;;;18.60;98.04
79463;BME280;68931;47.286;18.756;2023-08-06T00:16:45;99281.41;;;18.42;98.23
79463;BME280;68931;47.286;18.756;2023-08-06T00:17:17;99295.31;;;18.53;98.03
79463;BME280;68931;47.286;18.756;2023-08-06T00:17:49;99299.13;;;18.50;97.63
79463;BME280;68931;47.286;18.756;2023-08-06T00:18:21;99316.75;;;18.59;97.94
79463;BME280;68931;47.286;18.756;2023-08-06T00:18:53;99315.09;;;18.58;98.09
79463;BME280;68931;47.286;18.756;2023-08-06T00:19:26;99322.06;;;18.59;98.01
79463;BME280;68931;47.286;18.756;2023-08-06T00:19:58;99321.25;;;18.59;97.72
79463;BME280;68931;47.286;18.756;2023-08-06T00:20:39;99307.44;;;18.47;97.41
79463;BME280;68931;47.286;18.756;2023-08-06T00:21:12;99311.75;;;18.48;97.47
79463;BME280;68931;47.286;18.756;2023-08-06T00:21:44;99322.88;;;18.52;97.94
79463;BME280;68931;47.286;18.756;2023-08-06T00:22:19;99303.31;;;18.45;97.49
79463;BME280;68931;47.286;18.756;2023-08-06T00:22:51;99323.41;;;18.55;97.70
79463;BME280;68931;47.286;18.756;2023-08-06T00:23:23;99326.72;;;18.57;97.65
79463;BME280;68931;47.286;18.756;2023-08-06T00:23:55;99335.66;;;18.56;97.62
79463;BME280;68931;47.286;18.756;2023-08-06T00:24:44;99326.38;;;18.52;97.47
79463;BME280;68931;47.286;18.756;2023-08-06T00:25:34;99332.03;;;18.57;97.53
79463;BME280;68931;47.286;18.756;2023-08-06T00:26:06;99329.38;;;18.57;97.41
79463;BME280;68931;47.286;18.756;2023-08-06T00:26:38;99314.75;;;18.53;97.67
79463;BME280;68931;47.286;18.756;2023-08-06T00:27:10;99323.41;;;18.55;97.76
79463;BME280;68931;47.286;18.756;2023-08-06T00:27:42;99303.97;;;18.47;97.89
79463;BME280;68931;47.286;18.756;2023-08-06T00:28:14;99312.75;;;18.55;97.85
79463;BME280;68931;47.286;18.756;2023-08-06T00:28:46;99316.91;;;18.58;97.84
79463;BME280;68931;47.286;18.756;2023-08-06T00:29:18;99303.63;;;18.50;98.13
79463;BME280;68931;47.286;18.756;2023-08-06T00:29:50;99297.00;;;18.46;98.46
79463;BME280;68931;47.286;18.756;2023-08-06T00:30:22;99316.75;;;18.59;98.23
79463;BME280;68931;47.286;18.756;2023-08-06T00:30:55;99318.75;;;18.57;98.11
79463;BME280;68931;47.286;18.756;2023-08-06T00:31:27;99304.13;;;18.53;98.27
79463;BME280;68931;47.286;18.756;2023-08-06T00:31:59;99303.16;;;18.46;98.51
79463;BME280;68931;47.286;18.756;2023-08-06T00:32:31;99309.28;;;18.55;98.19
79463;BME280;68931;47.286;18.756;2023-08-06T00:33:03;99296.66;;;18.49;98.34
79463;BME280;68931;47.286;18.756;2023-08-06T00:33:35;99298.97;;;18.52;98.41
79463;BME280;68931;47.286;18.756;2023-08-06T00:34:07;99305.47;;;18.57;98.64
79463;BME280;68931;47.286;18.756;2023-08-06T00:34:39;99297.50;;;18.57;98.58
79463;BME280;68931;47.286;18.756;2023-08-06T00:35:11;99304.63;;;18.57;98.70
79463;BME280;68931;47.286;18.756;2023-08-06T00:35:45;99305.78;;;18.54;98.36
79463;BME280;68931;47.286;18.756;2023-08-06T00:36:18;99313.78;;;18.62;98.25
79463;BME280;68931;47.286;18.756;2023-08-06T00:36:50;99299.31;;;18.57;98.37
79463;BME280;68931;47.286;18.756;2023-08-06T00:37:22;99308.13;;;18.57;98.27
79463;BME280;68931;47.286;18.756;2023-08-06T00:37:54;99308.63;;;18.61;98.27
79463;BME280;68931;47.286;18.756;2023-08-06T00:38:26;99305.97;;;18.61;98.24
79463;BME280;68931;47.286;18.756;2023-08-06T00:38:58;99301.81;;;18.58;98.30
79463;BME280;68931;47.286;18.756;2023-08-06T00:39:50;99302.31;;;18.62;98.38
79463;BME280;68931;47.286;18.756;2023-08-06T00:40:25;99292.19;;;18.57;98.43
79463;BME280;68931;47.286;18.756;2023-08-06T00:40:57;99292.34;;;18.56;98.61
79463;BME280;68931;47.286;18.756;2023-08-06T00:41:32;99298.84;;;18.61;98.42
79463;BME280;68931;47.286;18.756;2023-08-06T00:42:04;99305.44;;;18.65;98.63
79463;BME280;68931;47.286;18.756;2023-08-06T00:42:36;99304.81;;;18.63;98.09
79463;BME280;68931;47.286;18.756;2023-08-06T00:43:08;99297.16;;;18.60;98.37
79463;BME280;68931;47.286;18.756;2023-08-06T00:43:40;99265.63;;;18.41;98.01
79463;BME280;68931;47.286;18.756;2023-08-06T00:44:30;99288.38;;;18.60;98.03
79463;BME280;68931;47.286;18.756;2023-08-06T00:45:02;99291.19;;;18.58;98.32
79463;BME280;68931;47.286;18.756;2023-08-06T00:45:37;99298.31;;;18.66;98.52
79463;BME280;68931;47.286;18.756;2023-08-06T00:46:10;99287.53;;;18.59;98.46
79463;BME280;68931;47.286;18.756;2023-08-06T00:46:42;99293.53;;;18.61;98.21
79463;BME280;68931;47.286;18.756;2023-08-06T00:47:15;99297.84;;;18.62;98.00
79463;BME280;68931;47.286;18.756;2023-08-06T00:47:48;99306.94;;;18.68;97.89
79463;BME280;68931;47.286;18.756;2023-08-06T00:48:20;99301.47;;;18.69;98.00
79463;BME280;68931;47.286;18.756;2023-08-06T00:48:53;99274.91;;;18.53;98.38
79463;BME280;68931;47.286;18.756;2023-08-06T00:49:25;99291.03;;;18.60;98.28
79463;BME280;68931;47.286;18.756;2023-08-06T00:49:57;99303.47;;;18.67;97.94
79463;BME280;68931;47.286;18.756;2023-08-06T00:50:29;99293.66;;;18.68;98.08
79463;BME280;68931;47.286;18.756;2023-08-06T00:51:05;99290.19;;;18.59;98.14
79463;BME280;68931;47.286;18.756;2023-08-06T00:51:37;99277.72;;;18.52;98.15
79463;BME280;68931;47.286;18.756;2023-08-06T00:52:09;99297.16;;;18.60;98.14
79463;BME280;68931;47.286;18.756;2023-08-06T00:52:42;99279.22;;;18.54;98.32
79463;BME280;68931;47.286;18.756;2023-08-06T00:53:14;99268.41;;;18.48;98.08
79463;BME280;68931;47.286;18.756;2023-08-06T00:53:47;99278.22;;;18.55;98.46
79463;BME280;68931;47.286;18.756;2023-08-06T00:54:20;99280.06;;;18.55;97.98
79463;BME280;68931;47.286;18.756;2023-08-06T00:54:52;99252.19;;;18.42;98.28
79463;BME280;68931;47.286;18.756;2023-08-06T00:55:24;99286.38;;;18.62;97.96
79463;BME280;68931;47.286;18.756;2023-08-06T00:55:58;99290.03;;;18.61;98.02
79463;BME280;68931;47.286;18.756;2023-08-06T00:56:30;99255.66;;;18.43;98.26
79463;BME280;68931;47.286;18.756;2023-08-06T00:57:04;99258.97;;;18.45;98.21
79463;BME280;68931;47.286;18.756;2023-08-06T00:57:38;99276.25;;;18.57;98.42
79463;BME280;68931;47.286;18.756;2023-08-06T00:58:10;99281.06;;;18.62;98.22
79463;BME280;68931;47.286;18.756;2023-08-06T00:58:42;99268.44;;;18.56;98.26
79463;BME280;68931;47.286;18.756;2023-08-06T00:59:16;99281.53;;;18.65;98.46
79463;BME280;68931;47.286;18.756;2023-08-06T00:59:48;99272.25;;;18.61;98.54
79463;BME280;68931;47.286;18.756;2023-08-06T01:00:22;99275.72;;;18.70;98.84
79463;BME280;68931;47.286;18.756;2023-08-06T01:00:54;99268.94;;;18.59;98.51
79463;BME280;68931;47.286;18.756;2023-08-06T01:01:29;99263.97;;;18.64;98.48
79463;BME280;68931;47.286;18.756;2023-08-06T01:02:01;99269.59;;;18.69;98.92
79463;BME280;68931;47.286;18.756;2023-08-06T01:02:37;99260.94;;;18.67;99.07
79463;BME280;68931;47.286;18.756;2023-08-06T01:03:09;99243.03;;;18.53;98.74
79463;BME280;68931;47.286;18.756;2023-08-06T01:03:41;99253.66;;;18.61;98.78
79463;BME280;68931;47.286;18.756;2023-08-06T01:04:13;99251.00;;;18.61;98.87
79463;BME280;68931;47.286;18.756;2023-08-06T01:04:45;99242.22;;;18.61;99.11
79463;BME280;68931;47.286;18.756;2023-08-06T01:05:18;99255.63;;;18.67;98.97
79463;BME280;68931;47.286;18.756;2023-08-06T01:05:52;99250.00;;;18.62;98.72
79463;BME280;68931;47.286;18.756;2023-08-06T01:06:40;99267.22;;;18.74;98.66
79463;BME280;68931;47.286;18.756;2023-08-06T01:07:37;99264.41;;;18.76;99.04
79463;BME280;68931;47.286;18.756;2023-08-06T01:09:24;99257.97;;;18.70;99.17
79463;BME280;68931;47.286;18.756;2023-08-06T01:11:59;99256.81;;;18.73;99.27
79463;BME280;68931;47.286;18.756;2023-08-06T01:13:01;99263.41;;;18.77;99.06
79463;BME280;68931;47.286;18.756;2023-08-06T01:13:53;99261.75;;;18.76;99.17
79463;BME280;68931;47.286;18.756;2023-08-06T01:14:33;99265.06;;;18.78;99.38
79463;BME280;68931;47.286;18.756;2023-08-06T01:15:46;99245.16;;;18.66;99.22
79463;BME280;68931;47.286;18.756;2023-08-06T01:16:21;99250.00;;;18.62;99.20
79463;BME280;68931;47.286;18.756;2023-08-06T01:16:54;99245.03;;;18.59;99.25
79463;BME280;68931;47.286;18.756;2023-08-06T01:17:26;99266.75;;;18.71;98.81
79463;BME280;68931;47.286;18.756;2023-08-06T01:17:59;99259.78;;;18.70;99.05
79463;BME280;68931;47.286;18.756;2023-08-06T01:18:31;99245.69;;;18.61;99.10
79463;BME280;68931;47.286;18.756;2023-08-06T01:19:05;99239.88;;;18.58;99.26
79463;BME280;68931;47.286;18.756;2023-08-06T01:19:37;99252.31;;;18.65;99.10
79463;BME280;68931;47.286;18.756;2023-08-06T01:20:09;99266.94;;;18.69;98.77
79463;BME280;68931;47.286;18.756;2023-08-06T01:20:41;99251.69;;;18.63;98.92
79463;BME280;68931;47.286;18.756;2023-08-06T01:21:14;99239.06;;;18.57;99.36
79463;BME280;68931;47.286;18.756;2023-08-06T01:21:45;99258.97;;;18.69;99.26
79463;BME280;68931;47.286;18.756;2023-08-06T01:22:18;99261.13;;;18.66;98.70
79463;BME280;68931;47.286;18.756;2023-08-06T01:22:49;99240.38;;;18.61;99.10
79463;BME280;68931;47.286;18.756;2023-08-06T01:23:22;99250.19;;;18.61;99.17
79463;BME280;68931;47.286;18.756;2023-08-06T01:23:55;99239.88;;;18.58;99.44
79463;BME280;68931;47.286;18.756;2023-08-06T01:24:27;99253.66;;;18.61;98.77
79463;BME280;68931;47.286;18.756;2023-08-06T01:24:59;99247.19;;;18.56;98.82
79463;BME280;68931;47.286;18.756;2023-08-06T01:25:43;99261.97;;;18.58;98.47
79463;BME280;68931;47.286;18.756;2023-08-06T01:27:41;99267.75;;;18.70;99.15
79463;BME280;68931;47.286;18.756;2023-08-06T01:28:48;99274.59;;;18.64;99.16
79463;BME280;68931;47.286;18.756;2023-08-06T01:29:29;99261.13;;;18.58;99.06
79463;BME280;68931;47.286;18.756;2023-08-06T01:30:08;99245.84;;;18.52;99.24
79463;BME280;68931;47.286;18.756;2023-08-06T01:30:44;99250.50;;;18.50;99.45
79463;BME280;68931;47.286;18.756;2023-08-06T01:31:41;99272.59;;;18.58;98.62
79463;BME280;68931;47.286;18.756;2023-08-06T01:32:15;99255.13;;;18.48;99.00
79463;BME280;68931;47.286;18.756;2023-08-06T01:32:50;99254.31;;;18.47;98.86
79463;BME280;68931;47.286;18.756;2023-08-06T01:33:27;99239.25;;;18.31;98.11
79463;BME280;68931;47.286;18.756;2023-08-06T01:34:06;99272.41;;;18.52;98.60
79463;BME280;68931;47.286;18.756;2023-08-06T01:34:41;99253.16;;;18.41;98.52
79463;BME280;68931;47.286;18.756;2023-08-06T01:35:17;99241.56;;;18.34;98.40
79463;BME280;68931;47.286;18.756;2023-08-06T01:35:53;99234.91;;;18.30;98.43
79463;BME280;68931;47.286;18.756;2023-08-06T01:36:27;99233.94;;;18.31;98.73
79463;BME280;68931;47.286;18.756;2023-08-06T01:37:00;99256.16;;;18.47;98.74
79463;BME280;68931;47.286;18.756;2023-08-06T01:37:33;99251.03;;;18.45;98.87
79463;BME280;68931;47.286;18.756;2023-08-06T01:38:06;99253.69;;;18.45;98.62
79463;BME280;68931;47.286;18.756;2023-08-06T01:38:38;99237.75;;;18.37;98.66
79463;BME280;68931;47.286;18.756;2023-08-06T01:39:10;99249.81;;;18.48;98.87
79463;BME280;68931;47.286;18.756;2023-08-06T01:39:42;99247.38;;;18.46;99.22
79463;BME280;68931;47.286;18.756;2023-08-06T01:40:15;99251.66;;;18.47;99.72
79463;BME280;68931;47.286;18.756;2023-08-06T01:40:47;99233.41;;;18.44;99.25
79463;BME280;68931;47.286;18.756;2023-08-06T01:41:19;99217.16;;;18.31;99.34
79463;BME280;68931;47.286;18.756;2023-08-06T01:41:51;99235.41;;;18.42;99.29
79463;BME280;68931;47.286;18.756;2023-08-06T01:42:23;99230.44;;;18.39;99.30
79463;BME280;68931;47.286;18.756;2023-08-06T01:42:55;99228.44;;;18.41;99.15
79463;BME280;68931;47.286;18.756;2023-08-06T01:43:27;99232.91;;;18.40;99.34
79463;BME280;68931;47.286;18.756;2023-08-06T01:43:59;99218.19;;;18.38;99.26
79463;BME280;68931;47.286;18.756;2023-08-06T01:44:31;99209.03;;;18.32;99.03
79463;BME280;68931;47.286;18.756;2023-08-06T01:45:04;99229.09;;;18.43;99.02
79463;BME280;68931;47.286;18.756;2023-08-06T01:45:36;99233.41;;;18.44;98.83
79463;BME280;68931;47.286;18.756;2023-08-06T01:46:08;99221.00;;;18.36;99.04
79463;BME280;68931;47.286;18.756;2023-08-06T01:46:40;99228.78;;;18.38;98.99
79463;BME280;68931;47.286;18.756;2023-08-06T01:47:12;99225.47;;;18.36;98.98
79463;BME280;68931;47.286;18.756;2023-08-06T01:47:44;99225.13;;;18.39;99.09
79463;BME280;68931;47.286;18.756;2023-08-06T01:48:16;99207.38;;;18.31;98.88
79463;BME280;68931;47.286;18.756;2023-08-06T01:48:48;99226.63;;;18.41;99.06
79463;BME280;68931;47.286;18.756;2023-08-06T01:49:20;99237.38;;;18.48;99.30
79463;BME280;68931;47.286;18.756;2023-08-06T01:49:52;99221.81;;;18.37;99.16
79463;BME280;68931;47.286;18.756;2023-08-06T01:50:24;99227.13;;;18.37;99.87
79463;BME280;68931;47.286;18.756;2023-08-06T01:50:56;99215.84;;;18.35;99.08
79463;BME280;68931;47.286;18.756;2023-08-06T01:51:28;99229.78;;;18.45;99.53
79463;BME280;68931;47.286;18.756;2023-08-06T01:52:00;99222.47;;;18.39;99.35
79463;BME280;68931;47.286;18.756;2023-08-06T01:52:35;99219.16;;;18.37;99.24
79463;BME280;68931;47.286;18.756;2023-08-06T01:53:07;99214.50;;;18.39;99.18
79463;BME280;68931;47.286;18.756;2023-08-06T01:53:39;99227.13;;;18.45;99.73
79463;BME280;68931;47.286;18.756;2023-08-06T01:54:11;99220.97;;;18.45;99.31
79463;BME280;68931;47.286;18.756;2023-08-06T01:54:43;99221.97;;;18.43;99.36
79463;BME280;68931;47.286;18.756;2023-08-06T01:55:15;99212.34;;;18.42;99.22
79463;BME280;68931;47.286;18.756;2023-08-06T01:55:50;99228.56;;;18.48;99.32
79463;BME280;68931;47.286;18.756;2023-08-06T01:56:22;99203.88;;;18.39;99.25
79463;BME280;68931;47.286;18.756;2023-08-06T01:56:54;99203.22;;;18.37;99.40
79463;BME280;68931;47.286;18.756;2023-08-06T01:57:26;99206.34;;;18.40;99.23
79463;BME280;68931;47.286;18.756;2023-08-06T01:57:58;99210.84;;;18.40;99.27
79463;BME280;68931;47.286;18.756;2023-08-06T01:58:30;99210.69;;;18.41;99.21
79463;BME280;68931;47.286;18.756;2023-08-06T01:59:02;99205.69;;;18.38;99.33
79463;BME280;68931;47.286;18.756;2023-08-06T01:59:35;99215.00;;;18.42;98.72
79463;BME280;68931;47.286;18.756;2023-08-06T02:00:07;99219.44;;;18.50;99.31
79463;BME280;68931;47.286;18.756;2023-08-06T02:00:40;99208.84;;;18.42;99.16
79463;BME280;68931;47.286;18.756;2023-08-06T02:01:12;99203.03;;;18.38;98.95
79463;BME280;68931;47.286;18.756;2023-08-06T02:01:45;99208.84;;;18.42;98.67
79463;BME280;68931;47.286;18.756;2023-08-06T02:02:17;99190.44;;;18.32;98.54
79463;BME280;68931;47.286;18.756;2023-08-06T02:02:49;99210.50;;;18.43;98.63
79463;BME280;68931;47.286;18.756;2023-08-06T02:03:21;99196.59;;;18.33;98.70
79463;BME280;68931;47.286;18.756;2023-08-06T02:03:53;99187.31;;;18.29;98.62
79463;BME280;68931;47.286;18.756;2023-08-06T02:04:24;99200.25;;;18.32;98.05
79463;BME280;68931;47.286;18.756;2023-08-06T02:04:56;99198.56;;;18.31;98.48
79463;BME280;68931;47.286;18.756;2023-08-06T02:05:30;99194.25;;;18.30;98.64
79463;BME280;68931;47.286;18.756;2023-08-06T02:06:02;99182.66;;;18.23;98.36
79463;BME280;68931;47.286;18.756;2023-08-06T02:06:34;99189.97;;;18.29;98.23
79463;BME280;68931;47.286;18.756;2023-08-06T02:07:06;99204.06;;;18.37;98.59
79463;BME280;68931;47.286;18.756;2023-08-06T02:07:38;99203.56;;;18.34;98.48
79463;BME280;68931;47.286;18.756;2023-08-06T02:08:12;99184.31;;;18.24;98.40
79463;BME280;68931;47.286;18.756;2023-08-06T02:08:44;99202.22;;;18.30;98.58
79463;BME280;68931;47.286;18.756;2023-08-06T02:09:16;99182.66;;;18.23;98.78
79463;BME280;68931;47.286;18.756;2023-08-06T02:09:54;99191.81;;;18.28;98.55
79463;BME280;68931;47.286;18.756;2023-08-06T02:10:26;99197.13;;;18.28;98.05
79463;BME280;68931;47.286;18.756;2023-08-06T02:10:58;99195.44;;;18.27;98.08
79463;BME280;68931;47.286;18.756;2023-08-06T02:11:30;99191.28;;;18.25;98.07
79463;BME280;68931;47.286;18.756;2023-08-06T02:12:08;99182.00;;;18.21;98.18
79463;BME280;68931;47.286;18.756;2023-08-06T02:12:43;99183.03;;;18.20;98.01
79463;BME280;68931;47.286;18.756;2023-08-06T02:13:15;99179.53;;;18.19;98.29
79463;BME280;68931;47.286;18.756;2023-08-06T02:13:47;99163.44;;;18.13;98.20
79463;BME280;68931;47.286;18.756;2023-08-06T02:14:19;99167.91;;;18.12;97.78
79463;BME280;68931;47.286;18.756;2023-08-06T02:14:51;99195.78;;;18.24;97.91
79463;BME280;68931;47.286;18.756;2023-08-06T02:15:23;99171.06;;;18.16;97.83
79463;BME280;68931;47.286;18.756;2023-08-06T02:15:55;99180.69;;;18.25;97.87
79463;BME280;68931;47.286;18.756;2023-08-06T02:16:27;99174.72;;;18.15;98.48
79463;BME280;68931;47.286;18.756;2023-08-06T02:16:59;99163.28;;;18.06;98.35
79463;BME280;68931;47.286;18.756;2023-08-06T02:17:31;99171.75;;;18.10;98.26
79463;BME280;68931;47.286;18.756;2023-08-06T02:18:03;99170.56;;;18.12;98.55
79463;BME280;68931;47.286;18.756;2023-08-06T02:18:35;99138.28;;;17.92;98.14
79463;BME280;68931;47.286;18.756;2023-08-06T02:19:07;99185.34;;;18.15;98.31
79463;BME280;68931;47.286;18.756;2023-08-06T02:19:39;99169.25;;;18.08;97.99
79463;BME280;68931;47.286;18.756;2023-08-06T02:20:11;99150.34;;;17.95;97.91
79463;BME280;68931;47.286;18.756;2023-08-06T02:20:43;99163.94;;;18.08;98.22
79463;BME280;68931;47.286;18.756;2023-08-06T02:21:15;99163.78;;;18.10;98.17
79463;BME280;68931;47.286;18.756;2023-08-06T02:21:47;99152.50;;;18.08;98.18
79463;BME280;68931;47.286;18.756;2023-08-06T02:22:19;99146.69;;;18.04;98.39
79463;BME280;68931;47.286;18.756;2023-08-06T02:22:51;99175.22;;;18.18;98.31
79463;BME280;68931;47.286;18.756;2023-08-06T02:23:24;99155.66;;;18.11;98.32
79463;BME280;68931;47.286;18.756;2023-08-06T02:23:56;99168.09;;;18.11;98.36
79463;BME280;68931;47.286;18.756;2023-08-06T02:24:28;99170.25;;;18.15;98.60
79463;BME280;68931;47.286;18.756;2023-08-06T02:25:00;99158.81;;;18.07;98.47
79463;BME280;68931;47.286;18.756;2023-08-06T02:25:35;99169.09;;;18.18;98.87
79463;BME280;68931;47.286;18.756;2023-08-06T02:26:07;99160.16;;;18.11;98.41
79463;BME280;68931;47.286;18.756;2023-08-06T02:26:39;99163.09;;;18.16;98.81
79463;BME280;68931;47.286;18.756;2023-08-06T02:27:11;99155.47;;;18.13;98.38
79463;BME280;68931;47.286;18.756;2023-08-06T02:27:43;99169.09;;;18.18;99.19
79463;BME280;68931;47.286;18.756;2023-08-06T02:28:15;99135.59;;;18.00;98.54
79463;BME280;68931;47.286;18.756;2023-08-06T02:28:50;99166.91;;;18.13;98.11
79463;BME280;68931;47.286;18.756;2023-08-06T02:29:22;99140.41;;;18.05;98.53
79463;BME280;68931;47.286;18.756;2023-08-06T02:29:54;99152.19;;;18.11;98.50
79463;BME280;68931;47.286;18.756;2023-08-06T02:30:26;99158.09;;;18.21;98.85
79463;BME280;68931;47.286;18.756;2023-08-06T02:30:58;99165.06;;;18.22;98.61
79463;BME280;68931;47.286;18.756;2023-08-06T02:31:30;99143.56;;;18.09;98.52
79463;BME280;68931;47.286;18.756;2023-08-06T02:32:02;99170.38;;;18.22;98.62
79463;BME280;68931;47.286;18.756;2023-08-06T02:32:34;99163.44;;;18.13;98.66
79463;BME280;68931;47.286;18.756;2023-08-06T02:33:07;99147.34;;;18.06;98.30
79463;BME280;68931;47.286;18.756;2023-08-06T02:33:39;99147.03;;;18.09;98.07
79463;BME280;68931;47.286;18.756;2023-08-06T02:34:13;99145.88;;;18.12;98.62
79463;BME280;68931;47.286;18.756;2023-08-06T02:34:45;99142.88;;;18.07;98.45
79463;BME280;68931;47.286;18.756;2023-08-06T02:35:17;99157.63;;;18.17;98.74
79463;BME280;68931;47.286;18.756;2023-08-06T02:35:49;99140.56;;;18.03;98.34
79463;BME280;68931;47.286;18.756;2023-08-06T02:36:21;99143.84;;;18.14;98.46
79463;BME280;68931;47.286;18.756;2023-08-06T02:36:53;99142.56;;;18.10;98.48
79463;BME280;68931;47.286;18.756;2023-08-06T02:37:25;99149.50;;;18.19;98.31
79463;BME280;68931;47.286;18.756;2023-08-06T02:37:57;99140.22;;;18.07;98.42
79463;BME280;68931;47.286;18.756;2023-08-06T02:38:30;99161.78;;;18.20;98.16
79463;BME280;68931;47.286;18.756;2023-08-06T02:39:05;99132.94;;;18.00;98.53
79463;BME280;68931;47.286;18.756;2023-08-06T02:39:37;99147.06;;;18.01;98.13
79463;BME280;68931;47.286;18.756;2023-08-06T02:40:11;99165.94;;;18.14;98.36
79463;BME280;68931;47.286;18.756;2023-08-06T02:40:46;99155.81;;;18.10;98.03
79463;BME280;68931;47.286;18.756;2023-08-06T02:41:18;99151.84;;;18.05;98.16
79463;BME280;68931;47.286;18.756;2023-08-06T02:41:53;99141.75;;;18.01;97.96
79463;BME280;68931;47.286;18.756;2023-08-06T02:42:25;99136.28;;;18.02;97.82
79463;BME280;68931;47.286;18.756;2023-08-06T02:42:58;99160.31;;;18.09;97.38
79463;BME280;68931;47.286;18.756;2023-08-06T02:43:33;99160.78;;;18.13;97.91
79463;BME280;68931;47.286;18.756;2023-08-06T02:44:05;99131.63;;;17.96;97.70
79463;BME280;68931;47.286;18.756;2023-08-06T02:44:37;99146.88;;;18.02;97.92
79463;BME280;68931;47.286;18.756;2023-08-06T02:45:09;99160.31;;;18.09;98.02
79463;BME280;68931;47.286;18.756;2023-08-06T02:45:44;99127.66;;;17.92;98.02
79463;BME280;68931;47.286;18.756;2023-08-06T02:46:16;99125.16;;;17.91;98.31
79463;BME280;68931;47.286;18.756;2023-08-06T02:46:48;99147.06;;;18.01;98.38
79463;BME280;68931;47.286;18.756;2023-08-06T02:47:20;99169.44;;;18.07;97.92
79463;BME280;68931;47.286;18.756;2023-08-06T02:47:52;99130.97;;;17.86;98.24
79463;BME280;68931;47.286;18.756;2023-08-06T02:48:24;99168.75;;;18.04;97.90
79463;BME280;68931;47.286;18.756;2023-08-06T02:48:56;99145.91;;;17.87;97.99
79463;BME280;68931;47.286;18.756;2023-08-06T02:49:28;99155.50;;;17.96;97.90
79463;BME280;68931;47.286;18.756;2023-08-06T02:50:00;99147.09;;;17.85;97.85
79463;BME280;68931;47.286;18.756;2023-08-06T02:50:40;99151.88;;;17.81;97.28
79463;BME280;68931;47.286;18.756;2023-08-06T02:51:12;99174.91;;;17.97;97.45
79463;BME280;68931;47.286;18.756;2023-08-06T02:51:45;99170.44;;;17.89;97.51
79463;BME280;68931;47.286;18.756;2023-08-06T02:52:17;99168.13;;;17.86;97.16
79463;BME280;68931;47.286;18.756;2023-08-06T02:52:50;99169.44;;;17.90;97.16
79463;BME280;68931;47.286;18.756;2023-08-06T02:53:22;99167.78;;;17.89;97.32
79463;BME280;68931;47.286;18.756;2023-08-06T02:53:53;99156.53;;;17.79;97.28
79463;BME280;68931;47.286;18.756;2023-08-06T02:54:25;99176.41;;;17.91;97.24
79463;BME280;68931;47.286;18.756;2023-08-06T02:54:58;99182.88;;;17.97;97.37
79463;BME280;68931;47.286;18.756;2023-08-06T02:55:32;99179.38;;;17.96;97.14
79463;BME280;68931;47.286;18.756;2023-08-06T02:56:05;99172.78;;;17.92;97.11
79463;BME280;68931;47.286;18.756;2023-08-06T02:56:37;99169.13;;;17.85;97.34
79463;BME280;68931;47.286;18.756;2023-08-06T02:57:10;99174.75;;;17.82;97.43
79463;BME280;68931;47.286;18.756;2023-08-06T02:57:42;99160.84;;;17.80;97.47
79463;BME280;68931;47.286;18.756;2023-08-06T02:58:14;99188.03;;;17.90;97.49
79463;BME280;68931;47.286;18.756;2023-08-06T02:58:47;99157.19;;;17.73;97.55
79463;BME280;68931;47.286;18.756;2023-08-06T02:59:19;99187.72;;;17.85;97.64
79463;BME280;68931;47.286;18.756;2023-08-06T02:59:51;99175.09;;;17.87;97.57
79463;BME280;68931;47.286;18.756;2023-08-06T03:00:25;99164.16;;;17.82;97.23
79463;BME280;68931;47.286;18.756;2023-08-06T03:01:05;99159.16;;;17.79;97.43